sensor_id;sensor_type;location;lat;lon;timestamp;P1;durP1;ratioP1;P2;durP2;ratioP2
28958;SDS011;16066;0.000;0.000;2023-05-17T05:31:28;15.67;;;7.03;;
28958;SDS011;16066;0.000;0.000;2023-05-17T05:33:54;16.67;;;7.13;;
28958;SDS011;16066;0.000;0.000;2023-05-17T05:36:19;17.53;;;7.43;;
28958;SDS011;16066;0.000;0.000;2023-05-17T05:38:45;10.63;;;5.20;;
28958;SDS011;16066;0.000;0.000;2023-05-17T05:41:11;10.77;;;8.30;;
28958;SDS011;16066;0.000;0.000;2023-05-17T05:43:36;15.60;;;6.40;;
28958;SDS011;16066;0.000;0.000;2023-05-17T05:46:02;14.30;;;7.73;;
28958;SDS011;16066;0.000;0.000;2023-05-17T05:48:28;13.30;;;7.10;;
28958;SDS011;16066;0.000;0.000;2023-05-17T05:50:53;8.33;;;5.97;;
28958;SDS011;16066;0.000;0.000;2023-05-17T05:53:19;11.13;;;6.30;;
28958;SDS011;16066;0.000;0.000;2023-05-17T05:55:44;11.53;;;6.37;;
28958;SDS011;16066;0.000;0.000;2023-05-17T05:58:10;11.87;;;5.77;;
28958;SDS011;16066;0.000;0.000;2023-05-17T06:00:36;9.20;;;5.10;;
28958;SDS011;16066;0.000;0.000;2023-05-17T06:03:01;9.27;;;6.03;;
28958;SDS011;16066;0.000;0.000;2023-05-17T06:05:27;13.87;;;5.97;;
28958;SDS011;16066;0.000;0.000;2023-05-17T06:07:52;8.53;;;4.27;;
28958;SDS011;16066;0.000;0.000;2023-05-17T06:10:18;10.30;;;5.60;;
28958;SDS011;16066;0.000;0.000;2023-05-17T06:12:43;10.93;;;4.57;;
28958;SDS011;16066;0.000;0.000;2023-05-17T06:15:09;11.00;;;4.97;;
28958;SDS011;16066;0.000;0.000;2023-05-17T06:17:35;10.17;;;4.00;;
28958;SDS011;16066;0.000;0.000;2023-05-17T06:20:00;10.53;;;4.70;;
28958;SDS011;16066;0.000;0.000;2023-05-17T06:22:26;9.67;;;4.50;;
28958;SDS011;16066;0.000;0.000;2023-05-17T06:24:51;12.53;;;4.27;;
28958;SDS011;16066;0.000;0.000;2023-05-17T06:27:17;11.47;;;5.10;;
28958;SDS011;16066;0.000;0.000;2023-05-17T06:29:42;9.40;;;4.17;;
28958;SDS011;16066;0.000;0.000;2023-05-17T06:32:08;9.90;;;3.77;;
28958;SDS011;16066;0.000;0.000;2023-05-17T06:34:33;12.03;;;4.70;;
28958;SDS011;16066;0.000;0.000;2023-05-17T06:36:59;12.47;;;3.50;;
28958;SDS011;16066;0.000;0.000;2023-05-17T06:39:24;8.57;;;4.17;;
28958;SDS011;16066;0.000;0.000;2023-05-17T06:41:50;9.10;;;3.80;;
28958;SDS011;16066;0.000;0.000;2023-05-17T06:44:15;10.70;;;4.10;;
28958;SDS011;16066;0.000;0.000;2023-05-17T06:46:41;6.80;;;4.13;;
28958;SDS011;16066;0.000;0.000;2023-05-17T06:49:06;8.27;;;3.40;;
28958;SDS011;16066;0.000;0.000;2023-05-17T06:51:32;9.67;;;4.37;;
28958;SDS011;16066;0.000;0.000;2023-05-17T06:53:57;8.47;;;3.80;;
28958;SDS011;16066;0.000;0.000;2023-05-17T06:56:23;8.83;;;3.47;;
28958;SDS011;16066;0.000;0.000;2023-05-17T06:58:49;7.90;;;3.10;;
28958;SDS011;16066;0.000;0.000;2023-05-17T07:01:14;10.50;;;3.90;;
28958;SDS011;16066;0.000;0.000;2023-05-17T07:03:40;8.33;;;2.90;;
28958;SDS011;16066;0.000;0.000;2023-05-17T07:06:06;9.97;;;3.67;;
28958;SDS011;16066;0.000;0.000;2023-05-17T07:08:31;12.33;;;4.87;;
28958;SDS011;16066;0.000;0.000;2023-05-17T07:10:57;11.30;;;4.80;;
28958;SDS011;16066;0.000;0.000;2023-05-17T07:13:23;12.83;;;5.30;;
28958;SDS011;16066;0.000;0.000;2023-05-17T07:15:48;9.10;;;4.27;;
28958;SDS011;16066;0.000;0.000;2023-05-17T07:18:14;7.07;;;3.60;;
28958;SDS011;16066;0.000;0.000;2023-05-17T07:20:40;9.93;;;4.20;;
28958;SDS011;16066;0.000;0.000;2023-05-17T07:23:05;16.67;;;5.00;;
28958;SDS011;16066;0.000;0.000;2023-05-17T07:25:31;12.10;;;3.73;;
28958;SDS011;16066;0.000;0.000;2023-05-17T07:27:57;8.17;;;4.20;;
28958;SDS011;16066;0.000;0.000;2023-05-17T07:30:22;11.37;;;4.20;;
28958;SDS011;16066;0.000;0.000;2023-05-17T07:32:48;7.83;;;3.10;;
28958;SDS011;16066;0.000;0.000;2023-05-17T07:35:13;9.93;;;3.77;;
28958;SDS011;16066;0.000;0.000;2023-05-17T07:37:39;11.87;;;5.23;;
28958;SDS011;16066;0.000;0.000;2023-05-17T07:40:05;12.87;;;4.97;;
28958;SDS011;16066;0.000;0.000;2023-05-17T07:42:31;9.87;;;4.40;;
28958;SDS011;16066;0.000;0.000;2023-05-17T07:44:57;18.07;;;6.90;;
28958;SDS011;16066;0.000;0.000;2023-05-17T07:47:23;11.70;;;3.63;;
28958;SDS011;16066;0.000;0.000;2023-05-17T07:49:48;14.10;;;5.67;;
28958;SDS011;16066;0.000;0.000;2023-05-17T07:52:14;13.73;;;4.10;;
28958;SDS011;16066;0.000;0.000;2023-05-17T07:54:40;14.90;;;4.17;;
28958;SDS011;16066;0.000;0.000;2023-05-17T07:57:05;11.23;;;3.13;;
28958;SDS011;16066;0.000;0.000;2023-05-17T07:59:31;14.43;;;4.23;;
28958;SDS011;16066;0.000;0.000;2023-05-17T08:01:57;11.17;;;3.43;;
28958;SDS011;16066;0.000;0.000;2023-05-17T08:04:22;8.23;;;3.00;;
28958;SDS011;16066;0.000;0.000;2023-05-17T08:06:48;17.87;;;3.67;;
28958;SDS011;16066;0.000;0.000;2023-05-17T08:09:14;7.60;;;2.60;;
28958;SDS011;16066;0.000;0.000;2023-05-17T08:11:43;10.37;;;3.90;;
28958;SDS011;16066;0.000;0.000;2023-05-17T08:14:12;10.27;;;4.10;;
28958;SDS011;16066;0.000;0.000;2023-05-17T08:16:38;16.67;;;3.80;;
28958;SDS011;16066;0.000;0.000;2023-05-17T08:19:04;9.53;;;4.00;;
28958;SDS011;16066;0.000;0.000;2023-05-17T08:21:30;13.53;;;4.10;;
28958;SDS011;16066;0.000;0.000;2023-05-17T08:23:55;10.17;;;3.17;;
28958;SDS011;16066;0.000;0.000;2023-05-17T08:26:21;15.93;;;3.83;;
28958;SDS011;16066;0.000;0.000;2023-05-17T08:28:47;9.30;;;3.20;;
28958;SDS011;16066;0.000;0.000;2023-05-17T08:31:12;13.87;;;4.17;;
28958;SDS011;16066;0.000;0.000;2023-05-17T08:33:38;5.53;;;3.10;;
28958;SDS011;16066;0.000;0.000;2023-05-17T08:36:03;12.50;;;3.57;;
28958;SDS011;16066;0.000;0.000;2023-05-17T08:38:32;9.63;;;3.67;;
28958;SDS011;16066;0.000;0.000;2023-05-17T08:40:58;9.40;;;4.00;;
28958;SDS011;16066;0.000;0.000;2023-05-17T08:43:24;10.13;;;3.40;;
28958;SDS011;16066;0.000;0.000;2023-05-17T08:45:50;11.70;;;3.83;;
28958;SDS011;16066;0.000;0.000;2023-05-17T08:48:17;6.77;;;3.00;;
28958;SDS011;16066;0.000;0.000;2023-05-17T08:50:44;7.70;;;2.50;;
28958;SDS011;16066;0.000;0.000;2023-05-17T08:53:10;8.63;;;3.13;;
28958;SDS011;16066;0.000;0.000;2023-05-17T08:55:39;7.40;;;2.77;;
28958;SDS011;16066;0.000;0.000;2023-05-17T08:58:08;8.23;;;3.50;;
28958;SDS011;16066;0.000;0.000;2023-05-17T09:00:34;8.90;;;3.53;;
28958;SDS011;16066;0.000;0.000;2023-05-17T09:03:00;9.30;;;2.87;;
28958;SDS011;16066;0.000;0.000;2023-05-17T09:05:26;8.10;;;2.83;;
28958;SDS011;16066;0.000;0.000;2023-05-17T09:07:52;6.97;;;2.30;;
28958;SDS011;16066;0.000;0.000;2023-05-17T09:10:20;5.93;;;3.17;;
28958;SDS011;16066;0.000;0.000;2023-05-17T09:12:45;6.00;;;2.60;;
28958;SDS011;16066;0.000;0.000;2023-05-17T09:15:16;9.17;;;2.87;;
28958;SDS011;16066;0.000;0.000;2023-05-17T09:17:50;6.93;;;3.00;;
28958;SDS011;16066;0.000;0.000;2023-05-17T09:20:23;7.10;;;2.40;;
28958;SDS011;16066;0.000;0.000;2023-05-17T09:22:57;9.27;;;2.30;;
28958;SDS011;16066;0.000;0.000;2023-05-17T09:25:27;8.70;;;2.90;;
28958;SDS011;16066;0.000;0.000;2023-05-17T09:27:53;4.40;;;1.90;;
28958;SDS011;16066;0.000;0.000;2023-05-17T09:30:31;10.30;;;2.70;;
28958;SDS011;16066;0.000;0.000;2023-05-17T09:32:58;7.83;;;2.13;;
28958;SDS011;16066;0.000;0.000;2023-05-17T09:35:31;6.60;;;2.47;;
28958;SDS011;16066;0.000;0.000;2023-05-17T09:38:06;7.70;;;2.80;;
28958;SDS011;16066;0.000;0.000;2023-05-17T09:40:40;4.00;;;2.30;;
28958;SDS011;16066;0.000;0.000;2023-05-17T09:43:08;8.83;;;2.20;;
28958;SDS011;16066;0.000;0.000;2023-05-17T09:45:34;6.93;;;2.57;;
28958;SDS011;16066;0.000;0.000;2023-05-17T09:48:10;12.23;;;3.87;;
28958;SDS011;16066;0.000;0.000;2023-05-17T09:50:43;8.33;;;2.80;;
28958;SDS011;16066;0.000;0.000;2023-05-17T09:53:28;9.60;;;2.30;;
28958;SDS011;16066;0.000;0.000;2023-05-17T09:55:56;6.30;;;2.77;;
28958;SDS011;16066;0.000;0.000;2023-05-17T09:58:30;5.80;;;2.53;;
28958;SDS011;16066;0.000;0.000;2023-05-17T10:01:00;7.70;;;3.30;;
28958;SDS011;16066;0.000;0.000;2023-05-17T10:03:34;9.07;;;3.57;;
28958;SDS011;16066;0.000;0.000;2023-05-17T10:06:09;9.70;;;4.03;;
28958;SDS011;16066;0.000;0.000;2023-05-17T10:08:39;11.77;;;4.47;;
28958;SDS011;16066;0.000;0.000;2023-05-17T10:11:11;7.10;;;2.87;;
28958;SDS011;16066;0.000;0.000;2023-05-17T10:16:12;9.13;;;2.93;;
28958;SDS011;16066;0.000;0.000;2023-05-17T10:18:39;12.83;;;5.47;;
28958;SDS011;16066;0.000;0.000;2023-05-17T10:21:08;8.23;;;3.70;;
28958;SDS011;16066;0.000;0.000;2023-05-17T10:23:35;15.40;;;4.10;;
28958;SDS011;16066;0.000;0.000;2023-05-17T10:26:02;11.13;;;3.50;;
28958;SDS011;16066;0.000;0.000;2023-05-17T10:28:29;8.23;;;3.70;;
28958;SDS011;16066;0.000;0.000;2023-05-17T10:30:55;11.00;;;2.90;;
28958;SDS011;16066;0.000;0.000;2023-05-17T10:33:22;11.37;;;3.50;;
28958;SDS011;16066;0.000;0.000;2023-05-17T10:35:50;8.50;;;3.60;;
28958;SDS011;16066;0.000;0.000;2023-05-17T10:38:18;5.60;;;2.87;;
28958;SDS011;16066;0.000;0.000;2023-05-17T10:40:44;5.80;;;3.07;;
28958;SDS011;16066;0.000;0.000;2023-05-17T10:43:10;9.03;;;3.30;;
28958;SDS011;16066;0.000;0.000;2023-05-17T10:45:37;6.13;;;3.30;;
28958;SDS011;16066;0.000;0.000;2023-05-17T10:48:05;7.20;;;2.90;;
28958;SDS011;16066;0.000;0.000;2023-05-17T10:50:32;6.53;;;3.10;;
28958;SDS011;16066;0.000;0.000;2023-05-17T10:52:58;6.53;;;2.80;;
28958;SDS011;16066;0.000;0.000;2023-05-17T10:55:33;11.07;;;4.20;;
28958;SDS011;16066;0.000;0.000;2023-05-17T11:00:43;15.50;;;4.90;;
28958;SDS011;16066;0.000;0.000;2023-05-17T11:08:36;5.63;;;2.60;;
28958;SDS011;16066;0.000;0.000;2023-05-17T11:11:11;9.07;;;3.17;;
28958;SDS011;16066;0.000;0.000;2023-05-17T11:13:49;6.30;;;3.30;;
28958;SDS011;16066;0.000;0.000;2023-05-17T11:16:16;14.17;;;3.60;;
28958;SDS011;16066;0.000;0.000;2023-05-17T11:18:50;5.83;;;2.70;;
28958;SDS011;16066;0.000;0.000;2023-05-17T11:21:19;10.27;;;4.07;;
28958;SDS011;16066;0.000;0.000;2023-05-17T11:23:46;10.38;;;4.50;;
28958;SDS011;16066;0.000;0.000;2023-05-17T11:26:18;9.83;;;3.77;;
28958;SDS011;16066;0.000;0.000;2023-05-17T11:28:58;8.20;;;3.83;;
28958;SDS011;16066;0.000;0.000;2023-05-17T11:31:33;13.13;;;3.60;;
28958;SDS011;16066;0.000;0.000;2023-05-17T11:34:03;9.90;;;3.70;;
28958;SDS011;16066;0.000;0.000;2023-05-17T11:36:29;6.27;;;3.20;;
28958;SDS011;16066;0.000;0.000;2023-05-17T11:39:08;7.80;;;2.90;;
28958;SDS011;16066;0.000;0.000;2023-05-17T11:41:38;8.47;;;3.20;;
28958;SDS011;16066;0.000;0.000;2023-05-17T11:44:11;12.77;;;3.23;;
28958;SDS011;16066;0.000;0.000;2023-05-17T11:46:37;7.20;;;2.30;;
28958;SDS011;16066;0.000;0.000;2023-05-17T11:49:05;7.50;;;3.13;;
28958;SDS011;16066;0.000;0.000;2023-05-17T11:51:31;7.47;;;2.80;;
28958;SDS011;16066;0.000;0.000;2023-05-17T11:53:57;4.70;;;2.80;;
28958;SDS011;16066;0.000;0.000;2023-05-17T11:56:27;10.30;;;3.10;;
28958;SDS011;16066;0.000;0.000;2023-05-17T11:58:57;8.33;;;3.97;;
28958;SDS011;16066;0.000;0.000;2023-05-17T12:01:23;7.30;;;3.27;;
28958;SDS011;16066;0.000;0.000;2023-05-17T12:03:54;9.27;;;2.83;;
28958;SDS011;16066;0.000;0.000;2023-05-17T12:06:21;10.47;;;3.10;;
28958;SDS011;16066;0.000;0.000;2023-05-17T12:08:47;6.80;;;2.40;;
28958;SDS011;16066;0.000;0.000;2023-05-17T12:11:16;9.90;;;3.37;;
28958;SDS011;16066;0.000;0.000;2023-05-17T12:13:42;11.33;;;3.33;;
28958;SDS011;16066;0.000;0.000;2023-05-17T12:16:14;12.20;;;6.57;;
28958;SDS011;16066;0.000;0.000;2023-05-17T12:18:41;30.70;;;16.40;;
28958;SDS011;16066;0.000;0.000;2023-05-17T12:21:14;35.80;;;17.27;;
28958;SDS011;16066;0.000;0.000;2023-05-17T12:23:41;69.20;;;42.40;;
28958;SDS011;16066;0.000;0.000;2023-05-17T12:26:12;37.03;;;23.47;;
28958;SDS011;16066;0.000;0.000;2023-05-17T12:28:39;34.20;;;19.27;;
28958;SDS011;16066;0.000;0.000;2023-05-17T12:31:19;27.63;;;16.77;;
28958;SDS011;16066;0.000;0.000;2023-05-17T12:33:49;39.90;;;22.47;;
28958;SDS011;16066;0.000;0.000;2023-05-17T12:36:15;46.33;;;26.67;;
28958;SDS011;16066;0.000;0.000;2023-05-17T12:38:41;49.33;;;27.97;;
28958;SDS011;16066;0.000;0.000;2023-05-17T12:41:09;46.93;;;25.70;;
28958;SDS011;16066;0.000;0.000;2023-05-17T12:43:39;50.45;;;27.95;;
28958;SDS011;16066;0.000;0.000;2023-05-17T12:46:05;36.80;;;22.87;;
28958;SDS011;16066;0.000;0.000;2023-05-17T12:48:35;35.27;;;23.00;;
28958;SDS011;16066;0.000;0.000;2023-05-17T12:54:07;35.67;;;20.47;;
28958;SDS011;16066;0.000;0.000;2023-05-17T12:56:32;28.30;;;18.37;;
28958;SDS011;16066;0.000;0.000;2023-05-17T13:04:03;26.30;;;16.10;;
28958;SDS011;16066;0.000;0.000;2023-05-17T13:06:51;27.27;;;15.37;;
28958;SDS011;16066;0.000;0.000;2023-05-17T13:09:16;27.57;;;16.10;;
28958;SDS011;16066;0.000;0.000;2023-05-17T13:11:48;24.70;;;13.83;;
28958;SDS011;16066;0.000;0.000;2023-05-17T13:19:49;25.37;;;14.20;;
28958;SDS011;16066;0.000;0.000;2023-05-17T13:22:15;27.80;;;14.87;;
28958;SDS011;16066;0.000;0.000;2023-05-17T13:24:41;23.60;;;13.50;;
28958;SDS011;16066;0.000;0.000;2023-05-17T13:27:09;16.17;;;10.50;;
28958;SDS011;16066;0.000;0.000;2023-05-17T13:29:36;18.90;;;11.50;;
28958;SDS011;16066;0.000;0.000;2023-05-17T13:32:04;18.40;;;12.20;;
28958;SDS011;16066;0.000;0.000;2023-05-17T13:34:30;16.00;;;9.53;;
28958;SDS011;16066;0.000;0.000;2023-05-17T13:36:56;22.63;;;9.90;;
28958;SDS011;16066;0.000;0.000;2023-05-17T13:39:21;20.63;;;11.37;;
28958;SDS011;16066;0.000;0.000;2023-05-17T13:41:47;14.30;;;9.23;;
28958;SDS011;16066;0.000;0.000;2023-05-17T13:44:13;16.47;;;8.93;;
28958;SDS011;16066;0.000;0.000;2023-05-17T13:46:39;17.30;;;9.87;;
28958;SDS011;16066;0.000;0.000;2023-05-17T13:49:04;14.60;;;8.33;;
28958;SDS011;16066;0.000;0.000;2023-05-17T13:51:32;12.83;;;7.60;;
28958;SDS011;16066;0.000;0.000;2023-05-17T13:53:58;12.77;;;8.00;;
28958;SDS011;16066;0.000;0.000;2023-05-17T13:56:24;11.10;;;7.53;;
28958;SDS011;16066;0.000;0.000;2023-05-17T13:58:50;14.20;;;8.77;;
28958;SDS011;16066;0.000;0.000;2023-05-17T14:01:16;12.70;;;7.10;;
28958;SDS011;16066;0.000;0.000;2023-05-17T14:03:42;12.17;;;7.63;;
28958;SDS011;16066;0.000;0.000;2023-05-17T14:06:08;13.50;;;7.57;;
28958;SDS011;16066;0.000;0.000;2023-05-17T14:08:34;10.37;;;7.07;;
28958;SDS011;16066;0.000;0.000;2023-05-17T14:10:59;12.87;;;8.63;;
28958;SDS011;16066;0.000;0.000;2023-05-17T14:13:25;11.23;;;7.87;;
28958;SDS011;16066;0.000;0.000;2023-05-17T14:15:51;13.23;;;7.70;;
28958;SDS011;16066;0.000;0.000;2023-05-17T14:18:17;13.93;;;7.07;;
28958;SDS011;16066;0.000;0.000;2023-05-17T14:20:42;14.40;;;6.40;;
28958;SDS011;16066;0.000;0.000;2023-05-17T14:23:08;10.97;;;6.70;;
28958;SDS011;16066;0.000;0.000;2023-05-17T14:25:33;11.30;;;6.73;;
28958;SDS011;16066;0.000;0.000;2023-05-17T14:27:59;11.37;;;6.43;;
28958;SDS011;16066;0.000;0.000;2023-05-17T14:30:24;8.90;;;5.57;;
28958;SDS011;16066;0.000;0.000;2023-05-17T14:32:50;8.37;;;5.63;;
28958;SDS011;16066;0.000;0.000;2023-05-17T14:35:15;11.10;;;5.60;;
28958;SDS011;16066;0.000;0.000;2023-05-17T14:37:41;9.07;;;5.17;;
28958;SDS011;16066;0.000;0.000;2023-05-17T14:40:07;7.63;;;5.30;;
28958;SDS011;16066;0.000;0.000;2023-05-17T14:42:33;7.10;;;4.47;;
28958;SDS011;16066;0.000;0.000;2023-05-17T14:44:59;8.93;;;5.10;;
28958;SDS011;16066;0.000;0.000;2023-05-17T14:47:25;8.73;;;4.40;;
28958;SDS011;16066;0.000;0.000;2023-05-17T14:49:50;8.47;;;4.20;;
28958;SDS011;16066;0.000;0.000;2023-05-17T14:52:16;7.93;;;4.37;;
28958;SDS011;16066;0.000;0.000;2023-05-17T14:54:42;6.80;;;4.20;;
28958;SDS011;16066;0.000;0.000;2023-05-17T14:57:08;8.07;;;4.73;;
28958;SDS011;16066;0.000;0.000;2023-05-17T14:59:34;6.00;;;4.37;;
28958;SDS011;16066;0.000;0.000;2023-05-17T15:02:00;11.80;;;4.90;;
28958;SDS011;16066;0.000;0.000;2023-05-17T15:04:26;10.87;;;4.80;;
28958;SDS011;16066;0.000;0.000;2023-05-17T15:06:51;12.30;;;6.13;;
28958;SDS011;16066;0.000;0.000;2023-05-17T15:09:17;9.10;;;5.80;;
28958;SDS011;16066;0.000;0.000;2023-05-17T15:11:45;14.50;;;6.40;;
28958;SDS011;16066;0.000;0.000;2023-05-17T15:14:11;13.23;;;7.80;;
28958;SDS011;16066;0.000;0.000;2023-05-17T15:16:36;11.43;;;7.20;;
28958;SDS011;16066;0.000;0.000;2023-05-17T15:19:02;14.70;;;7.60;;
28958;SDS011;16066;0.000;0.000;2023-05-17T15:21:28;13.07;;;6.17;;
28958;SDS011;16066;0.000;0.000;2023-05-17T15:23:54;8.10;;;5.33;;
28958;SDS011;16066;0.000;0.000;2023-05-17T15:26:19;8.63;;;4.83;;
28958;SDS011;16066;0.000;0.000;2023-05-17T15:28:46;6.90;;;4.07;;
28958;SDS011;16066;0.000;0.000;2023-05-17T15:31:13;9.70;;;4.73;;
28958;SDS011;16066;0.000;0.000;2023-05-17T15:33:39;12.90;;;4.03;;
28958;SDS011;16066;0.000;0.000;2023-05-17T15:36:07;8.00;;;3.53;;
28958;SDS011;16066;0.000;0.000;2023-05-17T15:38:36;9.00;;;4.57;;
28958;SDS011;16066;0.000;0.000;2023-05-17T15:41:03;6.33;;;3.43;;
28958;SDS011;16066;0.000;0.000;2023-05-17T15:43:33;15.20;;;4.30;;
28958;SDS011;16066;0.000;0.000;2023-05-17T15:45:59;5.97;;;3.80;;
28958;SDS011;16066;0.000;0.000;2023-05-17T15:48:25;9.83;;;4.30;;
28958;SDS011;16066;0.000;0.000;2023-05-17T15:50:55;7.23;;;4.07;;
28958;SDS011;16066;0.000;0.000;2023-05-17T15:53:22;6.43;;;3.93;;
28958;SDS011;16066;0.000;0.000;2023-05-17T15:55:48;7.07;;;3.63;;
28958;SDS011;16066;0.000;0.000;2023-05-17T15:58:18;8.23;;;3.70;;
28958;SDS011;16066;0.000;0.000;2023-05-17T16:00:47;5.40;;;3.03;;
28958;SDS011;16066;0.000;0.000;2023-05-17T16:03:13;6.67;;;3.10;;
28958;SDS011;16066;0.000;0.000;2023-05-17T16:05:39;4.63;;;3.20;;
28958;SDS011;16066;0.000;0.000;2023-05-17T16:08:06;11.77;;;3.37;;
28958;SDS011;16066;0.000;0.000;2023-05-17T16:10:32;6.67;;;2.60;;
28958;SDS011;16066;0.000;0.000;2023-05-17T16:12:59;8.93;;;3.70;;
28958;SDS011;16066;0.000;0.000;2023-05-17T16:15:24;8.37;;;3.07;;
28958;SDS011;16066;0.000;0.000;2023-05-17T16:17:50;3.90;;;2.30;;
28958;SDS011;16066;0.000;0.000;2023-05-17T16:20:15;6.57;;;2.73;;
28958;SDS011;16066;0.000;0.000;2023-05-17T16:22:45;9.63;;;3.50;;
28958;SDS011;16066;0.000;0.000;2023-05-17T16:25:14;9.77;;;3.73;;
28958;SDS011;16066;0.000;0.000;2023-05-17T16:27:40;5.27;;;2.63;;
28958;SDS011;16066;0.000;0.000;2023-05-17T16:30:06;5.80;;;2.60;;
28958;SDS011;16066;0.000;0.000;2023-05-17T16:32:32;6.67;;;2.67;;
28958;SDS011;16066;0.000;0.000;2023-05-17T16:34:57;6.70;;;2.80;;
28958;SDS011;16066;0.000;0.000;2023-05-17T16:37:24;5.40;;;2.60;;
28958;SDS011;16066;0.000;0.000;2023-05-17T16:39:50;5.20;;;2.57;;
28958;SDS011;16066;0.000;0.000;2023-05-17T16:42:15;8.60;;;3.00;;
28958;SDS011;16066;0.000;0.000;2023-05-17T16:44:41;5.20;;;2.60;;
28958;SDS011;16066;0.000;0.000;2023-05-17T16:47:06;5.23;;;2.60;;
28958;SDS011;16066;0.000;0.000;2023-05-17T16:49:32;10.87;;;2.97;;
28958;SDS011;16066;0.000;0.000;2023-05-17T16:51:58;7.60;;;2.50;;
28958;SDS011;16066;0.000;0.000;2023-05-17T16:54:23;5.77;;;2.47;;
28958;SDS011;16066;0.000;0.000;2023-05-17T16:56:51;3.70;;;2.60;;
28958;SDS011;16066;0.000;0.000;2023-05-17T16:59:17;6.97;;;2.90;;
28958;SDS011;16066;0.000;0.000;2023-05-17T17:01:43;8.60;;;2.60;;
28958;SDS011;16066;0.000;0.000;2023-05-17T17:04:09;9.43;;;3.10;;
28958;SDS011;16066;0.000;0.000;2023-05-17T17:06:35;5.43;;;2.67;;
28958;SDS011;16066;0.000;0.000;2023-05-17T17:09:02;4.50;;;2.40;;
28958;SDS011;16066;0.000;0.000;2023-05-17T17:11:30;6.73;;;2.53;;
28958;SDS011;16066;0.000;0.000;2023-05-17T17:13:56;11.03;;;3.20;;
28958;SDS011;16066;0.000;0.000;2023-05-17T17:16:22;7.07;;;2.83;;
28958;SDS011;16066;0.000;0.000;2023-05-17T17:18:48;7.20;;;3.10;;
28958;SDS011;16066;0.000;0.000;2023-05-17T17:21:13;11.07;;;3.43;;
28958;SDS011;16066;0.000;0.000;2023-05-17T17:23:39;6.63;;;3.03;;
28958;SDS011;16066;0.000;0.000;2023-05-17T17:26:06;9.37;;;3.40;;
28958;SDS011;16066;0.000;0.000;2023-05-17T17:28:35;9.30;;;3.20;;
28958;SDS011;16066;0.000;0.000;2023-05-17T17:31:01;7.33;;;2.70;;
28958;SDS011;16066;0.000;0.000;2023-05-17T17:33:27;11.70;;;2.70;;
28958;SDS011;16066;0.000;0.000;2023-05-17T17:35:53;6.50;;;2.60;;
28958;SDS011;16066;0.000;0.000;2023-05-17T17:38:18;5.30;;;2.80;;
28958;SDS011;16066;0.000;0.000;2023-05-17T17:40:44;6.00;;;2.90;;
28958;SDS011;16066;0.000;0.000;2023-05-17T17:43:09;7.40;;;3.33;;
28958;SDS011;16066;0.000;0.000;2023-05-17T17:45:35;11.60;;;3.33;;
28958;SDS011;16066;0.000;0.000;2023-05-17T17:48:00;6.77;;;2.50;;
28958;SDS011;16066;0.000;0.000;2023-05-17T17:50:26;6.47;;;2.60;;
28958;SDS011;16066;0.000;0.000;2023-05-17T17:52:51;6.70;;;2.83;;
28958;SDS011;16066;0.000;0.000;2023-05-17T17:55:17;6.53;;;2.50;;
28958;SDS011;16066;0.000;0.000;2023-05-17T17:57:42;8.33;;;2.47;;
28958;SDS011;16066;0.000;0.000;2023-05-17T18:00:08;5.50;;;2.30;;
28958;SDS011;16066;0.000;0.000;2023-05-17T18:02:34;5.93;;;3.03;;
28958;SDS011;16066;0.000;0.000;2023-05-17T18:05:00;5.90;;;1.93;;
28958;SDS011;16066;0.000;0.000;2023-05-17T18:07:25;6.60;;;3.10;;
28958;SDS011;16066;0.000;0.000;2023-05-17T18:09:51;8.13;;;2.80;;
28958;SDS011;16066;0.000;0.000;2023-05-17T18:12:16;8.50;;;2.47;;
28958;SDS011;16066;0.000;0.000;2023-05-17T18:14:42;8.57;;;2.83;;
28958;SDS011;16066;0.000;0.000;2023-05-17T18:17:08;4.67;;;2.37;;
28958;SDS011;16066;0.000;0.000;2023-05-17T18:19:34;7.30;;;2.73;;
28958;SDS011;16066;0.000;0.000;2023-05-17T18:21:59;5.87;;;2.17;;
28958;SDS011;16066;0.000;0.000;2023-05-17T18:24:25;5.73;;;2.80;;
28958;SDS011;16066;0.000;0.000;2023-05-17T18:26:51;3.47;;;1.97;;
28958;SDS011;16066;0.000;0.000;2023-05-17T18:29:17;5.27;;;2.50;;
28958;SDS011;16066;0.000;0.000;2023-05-17T18:31:42;4.40;;;2.10;;
28958;SDS011;16066;0.000;0.000;2023-05-17T18:34:08;10.37;;;3.00;;
28958;SDS011;16066;0.000;0.000;2023-05-17T18:36:33;7.43;;;2.90;;
28958;SDS011;16066;0.000;0.000;2023-05-17T18:38:59;9.03;;;2.40;;
28958;SDS011;16066;0.000;0.000;2023-05-17T18:41:25;6.90;;;3.67;;
28958;SDS011;16066;0.000;0.000;2023-05-17T18:43:51;14.03;;;2.57;;
28958;SDS011;16066;0.000;0.000;2023-05-17T18:46:17;7.63;;;2.83;;
28958;SDS011;16066;0.000;0.000;2023-05-17T18:48:42;5.63;;;3.00;;
28958;SDS011;16066;0.000;0.000;2023-05-17T18:51:08;8.20;;;2.30;;
28958;SDS011;16066;0.000;0.000;2023-05-17T18:53:33;7.50;;;2.87;;
28958;SDS011;16066;0.000;0.000;2023-05-17T18:56:00;8.87;;;2.83;;
28958;SDS011;16066;0.000;0.000;2023-05-17T18:58:26;4.37;;;2.60;;
28958;SDS011;16066;0.000;0.000;2023-05-17T19:00:53;6.33;;;3.00;;
28958;SDS011;16066;0.000;0.000;2023-05-17T19:03:19;8.23;;;2.43;;
28958;SDS011;16066;0.000;0.000;2023-05-17T19:05:45;10.20;;;3.97;;
28958;SDS011;16066;0.000;0.000;2023-05-17T19:08:11;6.43;;;2.83;;
28958;SDS011;16066;0.000;0.000;2023-05-17T19:10:37;7.23;;;3.00;;
28958;SDS011;16066;0.000;0.000;2023-05-17T19:13:02;6.57;;;2.80;;
28958;SDS011;16066;0.000;0.000;2023-05-17T19:15:30;10.00;;;2.30;;
28958;SDS011;16066;0.000;0.000;2023-05-17T19:17:56;9.00;;;3.80;;
28958;SDS011;16066;0.000;0.000;2023-05-17T19:20:21;7.63;;;3.50;;
28958;SDS011;16066;0.000;0.000;2023-05-17T19:22:47;10.57;;;3.40;;
28958;SDS011;16066;0.000;0.000;2023-05-17T19:25:12;6.37;;;3.53;;
28958;SDS011;16066;0.000;0.000;2023-05-17T19:27:38;14.50;;;8.23;;
28958;SDS011;16066;0.000;0.000;2023-05-17T19:30:03;15.40;;;4.67;;
28958;SDS011;16066;0.000;0.000;2023-05-17T19:32:31;11.67;;;3.83;;
28958;SDS011;16066;0.000;0.000;2023-05-17T19:34:57;7.20;;;3.50;;
28958;SDS011;16066;0.000;0.000;2023-05-17T19:37:22;12.47;;;3.83;;
28958;SDS011;16066;0.000;0.000;2023-05-17T19:39:48;7.47;;;3.43;;
28958;SDS011;16066;0.000;0.000;2023-05-17T19:42:14;9.30;;;4.23;;
28958;SDS011;16066;0.000;0.000;2023-05-17T19:44:39;10.23;;;4.20;;
28958;SDS011;16066;0.000;0.000;2023-05-17T19:47:05;9.27;;;3.73;;
28958;SDS011;16066;0.000;0.000;2023-05-17T19:49:30;10.83;;;3.43;;
28958;SDS011;16066;0.000;0.000;2023-05-17T19:51:56;13.13;;;3.67;;
28958;SDS011;16066;0.000;0.000;2023-05-17T19:54:25;7.13;;;4.07;;
28958;SDS011;16066;0.000;0.000;2023-05-17T19:56:52;11.50;;;4.40;;
28958;SDS011;16066;0.000;0.000;2023-05-17T19:59:17;9.97;;;3.73;;
28958;SDS011;16066;0.000;0.000;2023-05-17T20:01:43;8.20;;;4.00;;
28958;SDS011;16066;0.000;0.000;2023-05-17T20:04:08;11.37;;;4.33;;
28958;SDS011;16066;0.000;0.000;2023-05-17T20:06:34;8.13;;;3.63;;
28958;SDS011;16066;0.000;0.000;2023-05-17T20:09:00;12.07;;;6.07;;
28958;SDS011;16066;0.000;0.000;2023-05-17T20:11:25;8.53;;;4.03;;
28958;SDS011;16066;0.000;0.000;2023-05-17T20:13:51;6.10;;;3.00;;
28958;SDS011;16066;0.000;0.000;2023-05-17T20:16:16;7.27;;;2.80;;
28958;SDS011;16066;0.000;0.000;2023-05-17T20:18:42;9.63;;;4.07;;
28958;SDS011;16066;0.000;0.000;2023-05-17T20:21:08;11.03;;;3.60;;
28958;SDS011;16066;0.000;0.000;2023-05-17T20:23:36;7.10;;;3.30;;
28958;SDS011;16066;0.000;0.000;2023-05-17T20:26:02;9.30;;;3.23;;
28958;SDS011;16066;0.000;0.000;2023-05-17T20:28:28;13.67;;;3.80;;
28958;SDS011;16066;0.000;0.000;2023-05-17T20:30:54;6.80;;;2.93;;
28958;SDS011;16066;0.000;0.000;2023-05-17T20:33:20;11.10;;;4.57;;
28958;SDS011;16066;0.000;0.000;2023-05-17T20:35:50;10.37;;;3.57;;
28958;SDS011;16066;0.000;0.000;2023-05-17T20:38:18;15.37;;;4.47;;
28958;SDS011;16066;0.000;0.000;2023-05-17T20:40:44;7.07;;;3.70;;
28958;SDS011;16066;0.000;0.000;2023-05-17T20:43:10;9.97;;;4.73;;
28958;SDS011;16066;0.000;0.000;2023-05-17T20:45:35;11.90;;;5.90;;
28958;SDS011;16066;0.000;0.000;2023-05-17T20:48:01;9.27;;;4.80;;